Time;durP1;ratioP1;P1;durP2;ratioP2;P2;SDS_P1;SDS_P2;PMS_P1;PMS_P2;Temp;Humidity;BMP_temperature;BMP_pressure;BME280_temperature;BME280_humidity;BME280_pressure;Samples;Min_cycle;Max_cycle;Signal;HPM_P1;HPM_P2
2021/11/19 00:00:56;;;;;;;0.00;0.00;;;4.60;70.50;;;;;;5034735;28;20029;-80
2021/11/19 00:03:23;;;;;;;0.00;0.00;;;4.70;70.60;;;;;;5037001;28;20029;-80
2021/11/19 00:05:50;;;;;;;0.10;0.10;;;4.90;70.50;;;;;;5037216;28;20037;-79
2021/11/19 00:08:21;;;;;;;0.00;0.00;;;5.00;70.30;;;;;;5037184;28;20025;-80
2021/11/19 00:10:47;;;;;;;0.00;0.00;;;5.20;70.10;;;;;;5037303;28;20037;-80
2021/11/19 00:13:12;;;;;;;0.00;0.00;;;5.30;69.80;;;;;;5037272;28;20067;-80
2021/11/19 00:15:38;;;;;;;0.00;0.00;;;5.30;69.50;;;;;;5052621;28;20390;-80
2021/11/19 00:18:05;;;;;;;0.00;0.00;;;5.40;69.40;;;;;;5037171;28;20029;-80
2021/11/19 00:20:32;;;;;;;0.00;0.00;;;5.40;69.50;;;;;;5035445;28;20416;-80
2021/11/19 00:23:00;;;;;;;0.00;0.00;;;5.40;69.50;;;;;;5037175;28;20097;-80
2021/11/19 00:25:26;;;;;;;0.00;0.00;;;5.50;69.40;;;;;;5036282;28;20498;-79
2021/11/19 00:27:53;;;;;;;0.00;0.00;;;5.50;69.50;;;;;;5052741;28;20030;-80
2021/11/19 00:30:21;;;;;;;0.00;0.00;;;5.60;69.50;;;;;;5037180;28;20048;-80
2021/11/19 00:32:47;;;;;;;0.00;0.00;;;5.60;69.60;;;;;;5037815;28;20029;-80
2021/11/19 00:35:14;;;;;;;0.00;0.00;;;5.70;69.50;;;;;;5036999;28;20119;-80
2021/11/19 00:37:41;;;;;;;0.00;0.00;;;5.70;69.40;;;;;;5036567;28;20030;-80
2021/11/19 00:40:12;;;;;;;0.10;0.10;;;5.70;69.40;;;;;;5036897;28;20036;-80
2021/11/19 00:42:38;;;;;;;0.00;0.00;;;5.70;69.40;;;;;;5036479;28;20462;-80
2021/11/19 00:45:04;;;;;;;0.00;0.00;;;5.70;69.40;;;;;;5036442;28;20022;-80
2021/11/19 00:47:30;;;;;;;0.00;0.00;;;5.70;69.40;;;;;;5037258;28;20040;-80
2021/11/19 00:49:59;;;;;;;0.00;0.00;;;5.70;69.40;;;;;;5036817;28;20029;-80
2021/11/19 00:52:26;;;;;;;0.00;0.00;;;5.70;69.40;;;;;;5037068;28;20344;-80
2021/11/19 00:54:53;;;;;;;0.00;0.00;;;5.80;69.50;;;;;;5037303;28;20021;-80
2021/11/19 00:57:20;;;;;;;0.00;0.00;;;5.80;69.60;;;;;;5036859;28;20108;-80
2021/11/19 00:59:47;;;;;;;0.00;0.00;;;5.80;69.60;;;;;;5035591;28;20551;-80
2021/11/19 01:02:22;;;;;;;0.00;0.00;;;5.80;70.30;;;;;;5034956;28;20028;-80
2021/11/19 01:04:49;;;;;;;0.00;0.00;;;5.80;69.70;;;;;;5035350;28;20025;-80
2021/11/19 01:07:17;;;;;;;0.00;0.00;;;5.80;69.60;;;;;;5036628;28;20041;-80
2021/11/19 01:09:47;;;;;;;0.10;0.10;;;5.80;69.60;;;;;;5035479;28;20025;-80
2021/11/19 01:12:15;;;;;;;0.00;0.00;;;5.80;69.80;;;;;;5034901;28;20075;-79
2021/11/19 01:14:56;;;;;;;0.00;0.00;;;5.80;69.90;;;;;;5034931;28;20549;-79
2021/11/19 01:17:26;;;;;;;0.00;0.00;;;5.90;69.90;;;;;;5035416;28;20033;-79
2021/11/19 01:20:08;;;;;;;0.00;0.00;;;5.90;69.80;;;;;;5035317;28;20033;-79
2021/11/19 01:22:36;;;;;;;0.00;0.00;;;5.90;70.40;;;;;;5035581;28;20032;-80
2021/11/19 01:25:04;;;;;;;0.00;0.00;;;5.90;70.20;;;;;;5035324;28;20083;-80
2021/11/19 01:27:30;;;;;;;0.00;0.00;;;5.90;70.10;;;;;;5035082;28;20026;-80
2021/11/19 01:29:55;;;;;;;0.00;0.00;;;5.90;70.10;;;;;;5035019;28;20098;-80
2021/11/19 01:32:24;;;;;;;0.05;0.05;;;5.80;70.00;;;;;;5034691;28;20036;-80
2021/11/19 01:34:50;;;;;;;0.08;0.08;;;5.80;70.10;;;;;;5035147;28;20048;-80
2021/11/19 01:37:16;;;;;;;0.00;0.00;;;5.80;70.30;;;;;;5034910;28;20021;-80
2021/11/19 01:39:43;;;;;;;0.00;0.00;;;5.80;70.50;;;;;;5035078;28;20026;-80
2021/11/19 01:42:30;;;;;;;0.00;0.00;;;5.80;70.60;;;;;;5035499;28;20080;-80
2021/11/19 01:45:08;;;;;;;0.08;0.08;;;5.80;70.70;;;;;;5035180;28;20104;-80
2021/11/19 01:47:37;;;;;;;0.00;0.00;;;5.90;70.40;;;;;;5034713;28;20045;-80
2021/11/19 01:50:09;;;;;;;0.10;0.10;;;5.90;70.30;;;;;;5034594;28;20029;-80
2021/11/19 01:52:41;;;;;;;0.00;0.00;;;5.90;70.30;;;;;;5033157;28;20033;-80
2021/11/19 01:55:15;;;;;;;0.08;0.08;;;5.80;70.50;;;;;;5034579;28;20418;-79
2021/11/19 01:58:00;;;;;;;0.00;0.00;;;5.80;70.50;;;;;;5034483;28;20025;-79
2021/11/19 02:00:30;;;;;;;;;;;5.80;71.30;;;;;;5034910;28;20395;-80
2021/11/19 02:02:57;;;;;;;0.00;0.00;;;5.90;70.90;;;;;;5017085;28;19905;-80
2021/11/19 02:05:39;;;;;;;0.00;0.00;;;5.90;70.60;;;;;;5033387;28;20037;-80
2021/11/19 02:08:19;;;;;;;0.00;0.00;;;5.80;70.70;;;;;;5034416;28;20079;-79
2021/11/19 02:11:07;;;;;;;0.03;0.03;;;5.80;70.80;;;;;;5034510;28;20025;-80
2021/11/19 02:13:50;;;;;;;0.03;0.03;;;5.70;70.90;;;;;;5034299;28;20029;-80
2021/11/19 02:16:20;;;;;;;0.00;0.00;;;5.80;70.90;;;;;;5034589;28;20364;-79
2021/11/19 02:19:06;;;;;;;0.00;0.00;;;5.80;70.90;;;;;;5050253;28;20056;-80
2021/11/19 02:21:37;;;;;;;0.00;0.00;;;5.80;71.10;;;;;;5034142;28;20052;-80
2021/11/19 02:24:21;;;;;;;0.10;0.10;;;5.90;71.20;;;;;;5033456;28;20025;-79
2021/11/19 02:26:56;;;;;;;0.00;0.00;;;5.90;71.20;;;;;;5034332;28;20399;-80
2021/11/19 02:29:23;;;;;;;0.00;0.00;;;6.00;71.20;;;;;;5034093;28;20455;-80
2021/11/19 02:32:03;;;;;;;0.00;0.00;;;6.00;71.20;;;;;;5034695;28;20031;-79
2021/11/19 02:34:29;;;;;;;0.00;0.00;;;6.00;71.20;;;;;;5034657;28;20049;-79
2021/11/19 02:37:13;;;;;;;0.10;0.10;;;6.10;71.30;;;;;;5035071;28;20037;-80
2021/11/19 02:39:46;;;;;;;0.00;0.00;;;6.10;71.30;;;;;;5049551;28;20029;-80
2021/11/19 02:42:21;;;;;;;0.00;0.00;;;6.20;71.20;;;;;;5033717;28;20098;-79
2021/11/19 02:44:49;;;;;;;0.10;0.10;;;6.20;71.20;;;;;;5034132;28;20033;-79
2021/11/19 02:47:17;;;;;;;0.00;0.00;;;6.30;71.60;;;;;;5034029;28;20087;-79
2021/11/19 02:49:44;;;;;;;0.05;0.05;;;6.30;71.40;;;;;;5033853;28;20025;-79
2021/11/19 02:52:18;;;;;;;0.00;0.00;;;6.30;71.40;;;;;;5034293;28;20036;-79
2021/11/19 02:54:44;;;;;;;0.00;0.00;;;6.30;71.30;;;;;;5032947;28;20534;-79
2021/11/19 02:57:10;;;;;;;0.00;0.00;;;6.30;71.50;;;;;;5034187;28;20112;-79
2021/11/19 02:59:36;;;;;;;0.00;0.00;;;6.40;71.50;;;;;;5033903;28;20398;-80
2021/11/19 03:02:07;;;;;;;0.00;0.00;;;6.40;71.60;;;;;;5049935;28;20025;-80
2021/11/19 03:04:37;;;;;;;0.00;0.00;;;6.40;71.60;;;;;;5034144;28;20029;-80
2021/11/19 03:07:04;;;;;;;0.00;0.00;;;6.40;71.70;;;;;;5033814;28;20033;-80
2021/11/19 03:09:45;;;;;;;0.17;0.10;;;6.50;71.60;;;;;;5033388;28;20479;-80
2021/11/19 03:12:16;;;;;;;0.00;0.00;;;6.50;71.70;;;;;;5032569;28;20558;-80
2021/11/19 03:14:45;;;;;;;0.00;0.00;;;6.60;71.60;;;;;;5034082;28;20029;-79
2021/11/19 03:17:13;;;;;;;0.95;0.05;;;6.60;71.40;;;;;;5049728;28;20103;-80
2021/11/19 03:19:39;;;;;;;0.00;0.00;;;6.70;71.40;;;;;;5034559;28;20025;-80
2021/11/19 03:22:06;;;;;;;0.10;0.10;;;6.80;71.50;;;;;;5034206;28;20029;-80
2021/11/19 03:24:32;;;;;;;0.00;0.00;;;6.80;71.30;;;;;;5033605;28;20034;-80
2021/11/19 03:26:58;;;;;;;0.00;0.00;;;6.80;71.20;;;;;;5033887;28;20090;-80
2021/11/19 03:29:24;;;;;;;0.00;0.00;;;6.90;71.00;;;;;;5049322;28;20108;-80
2021/11/19 03:31:51;;;;;;;0.00;0.00;;;6.90;70.90;;;;;;5033654;28;20152;-80
2021/11/19 03:34:18;;;;;;;0.00;0.00;;;7.00;70.70;;;;;;5033688;28;20391;-80
2021/11/19 03:36:47;;;;;;;0.00;0.00;;;7.00;70.50;;;;;;5037548;28;20057;-79
2021/11/19 03:39:14;;;;;;;0.00;0.00;;;7.00;70.30;;;;;;5037476;28;20101;-80
2021/11/19 03:41:41;;;;;;;0.00;0.00;;;6.90;70.00;;;;;;5052770;28;20025;-79
2021/11/19 03:44:15;;;;;;;0.00;0.00;;;6.90;70.00;;;;;;5037615;28;20026;-79
2021/11/19 03:46:53;;;;;;;0.00;0.00;;;6.80;70.20;;;;;;5052473;28;20120;-79
2021/11/19 03:49:19;;;;;;;0.00;0.00;;;6.90;70.30;;;;;;5036744;28;20029;-79
2021/11/19 03:51:54;;;;;;;0.00;0.00;;;6.80;70.30;;;;;;5035502;28;20033;-79
2021/11/19 03:54:21;;;;;;;;;;;6.80;70.20;;;;;;5037580;28;20445;-79
2021/11/19 03:56:48;;;;;;;0.00;0.00;;;6.80;70.20;;;;;;5037084;28;20255;-79
2021/11/19 03:59:15;;;;;;;0.00;0.00;;;6.80;70.00;;;;;;5037182;28;20026;-78
2021/11/19 04:01:43;;;;;;;0.00;0.00;;;6.70;70.10;;;;;;5035914;28;20076;-79
2021/11/19 04:04:11;;;;;;;0.00;0.00;;;6.70;70.90;;;;;;5037052;28;20025;-79
2021/11/19 04:06:37;;;;;;;0.10;0.10;;;6.70;71.00;;;;;;5036909;28;20065;-79
2021/11/19 04:09:04;;;;;;;0.00;0.00;;;6.70;70.80;;;;;;5036554;28;20057;-79
2021/11/19 04:11:30;;;;;;;0.00;0.00;;;6.70;71.40;;;;;;5036391;28;20088;-80
2021/11/19 04:13:56;;;;;;;0.00;0.00;;;6.70;70.90;;;;;;5036376;28;20080;-78
2021/11/19 04:16:30;;;;;;;0.00;0.00;;;6.60;70.90;;;;;;5036303;28;20530;-78
2021/11/19 04:18:57;;;;;;;0.00;0.00;;;6.70;71.00;;;;;;5036456;28;20059;-78
2021/11/19 04:21:23;;;;;;;0.10;0.10;;;6.70;70.90;;;;;;5036698;28;20094;-79
2021/11/19 04:23:51;;;;;;;0.00;0.00;;;6.60;71.00;;;;;;5036161;28;20041;-79
2021/11/19 04:26:18;;;;;;;0.00;0.00;;;6.70;71.10;;;;;;5036299;28;20033;-79
2021/11/19 04:28:46;;;;;;;0.00;0.00;;;6.70;71.00;;;;;;5036399;28;20026;-79
2021/11/19 04:31:13;;;;;;;0.00;0.00;;;6.60;71.00;;;;;;5036108;28;20036;-79
2021/11/19 04:33:39;;;;;;;0.00;0.00;;;6.60;71.10;;;;;;5036099;28;20463;-79
2021/11/19 04:36:07;;;;;;;0.00;0.00;;;6.60;71.00;;;;;;5035727;28;20457;-79
2021/11/19 04:38:33;;;;;;;0.00;0.00;;;6.60;70.90;;;;;;5050866;28;20025;-79
2021/11/19 04:40:59;;;;;;;0.00;0.00;;;6.60;70.90;;;;;;5035029;28;20083;-78
2021/11/19 04:43:26;;;;;;;0.00;0.00;;;6.60;71.10;;;;;;5035622;28;20021;-79
2021/11/19 04:45:53;;;;;;;0.00;0.00;;;6.60;71.10;;;;;;5035656;28;20048;-78
2021/11/19 04:48:20;;;;;;;0.00;0.00;;;6.60;71.30;;;;;;5034866;28;20464;-78
2021/11/19 04:50:48;;;;;;;0.00;0.00;;;6.60;71.40;;;;;;5035273;28;20021;-83
2021/11/19 04:53:16;;;;;;;0.00;0.00;;;6.60;71.40;;;;;;5035380;28;20434;-80
2021/11/19 04:55:43;;;;;;;0.10;0.10;;;6.60;71.40;;;;;;5017954;28;20471;-79
2021/11/19 04:58:09;;;;;;;0.00;0.00;;;6.60;71.30;;;;;;5035278;28;20375;-80
2021/11/19 05:00:42;;;;;;;0.00;0.00;;;6.70;71.50;;;;;;5035725;28;20028;-80
2021/11/19 05:03:09;;;;;;;0.00;0.00;;;6.70;71.60;;;;;;5035252;28;20056;-80
2021/11/19 05:05:36;;;;;;;0.00;0.00;;;6.60;71.50;;;;;;5035191;28;20041;-80
2021/11/19 05:08:04;;;;;;;0.00;0.00;;;6.70;72.10;;;;;;5050707;28;20025;-79
2021/11/19 05:10:31;;;;;;;0.00;0.00;;;6.70;72.00;;;;;;5035089;28;20030;-80
2021/11/19 05:12:59;;;;;;;0.00;0.00;;;6.80;71.90;;;;;;5035141;28;20040;-80
2021/11/19 05:15:27;;;;;;;0.00;0.00;;;6.80;71.80;;;;;;5035233;28;20447;-81
2021/11/19 05:17:53;;;;;;;0.00;0.00;;;6.80;71.80;;;;;;5034813;28;20034;-81
2021/11/19 05:20:21;;;;;;;0.00;0.00;;;6.80;71.80;;;;;;5034951;28;20025;-80
2021/11/19 05:22:48;;;;;;;0.00;0.00;;;6.80;71.80;;;;;;5034533;28;20019;-79
2021/11/19 05:25:17;;;;;;;0.00;0.00;;;6.80;71.90;;;;;;5034442;28;20033;-79
2021/11/19 05:27:43;;;;;;;0.00;0.00;;;6.80;71.90;;;;;;5033431;28;20467;-79
2021/11/19 05:30:11;;;;;;;0.10;0.10;;;6.90;71.80;;;;;;5034556;28;20080;-79
2021/11/19 05:32:36;;;;;;;0.05;0.05;;;6.90;71.80;;;;;;5034717;28;20494;-81
2021/11/19 05:35:04;;;;;;;0.00;0.00;;;6.80;71.80;;;;;;5034938;28;20046;-80
2021/11/19 05:37:30;;;;;;;0.00;0.00;;;6.80;72.00;;;;;;5034590;28;20380;-80
2021/11/19 05:39:56;;;;;;;0.00;0.00;;;6.80;72.10;;;;;;5044774;28;20052;-79
2021/11/19 05:42:22;;;;;;;0.00;0.00;;;6.90;72.20;;;;;;5054535;28;20067;-82
2021/11/19 05:44:48;;;;;;;0.00;0.00;;;6.90;72.10;;;;;;5053478;28;20489;-79
2021/11/19 05:47:14;;;;;;;0.00;0.00;;;6.90;72.10;;;;;;5054049;28;20037;-79
2021/11/19 05:49:41;;;;;;;0.00;0.00;;;6.80;72.20;;;;;;5054144;28;20519;-79
2021/11/19 05:52:09;;;;;;;0.00;0.00;;;6.90;72.30;;;;;;5052857;28;20024;-80
2021/11/19 05:54:37;;;;;;;0.00;0.00;;;6.90;72.30;;;;;;5054115;28;20170;-80
2021/11/19 05:57:06;;;;;;;0.00;0.00;;;6.90;72.30;;;;;;5054000;28;20079;-80
2021/11/19 05:59:32;;;;;;;0.00;0.00;;;6.90;72.20;;;;;;5054068;28;20039;-81
2021/11/19 06:01:59;;;;;;;0.00;0.00;;;6.90;72.30;;;;;;5054232;28;20037;-80
2021/11/19 06:04:25;;;;;;;0.00;0.00;;;7.00;72.20;;;;;;5052926;28;20033;-80
2021/11/19 06:06:51;;;;;;;0.00;0.00;;;7.00;72.60;;;;;;5053742;28;20116;-80
2021/11/19 06:09:26;;;;;;;0.00;0.00;;;7.00;72.50;;;;;;5054033;28;20116;-80
2021/11/19 06:11:54;;;;;;;0.00;0.00;;;7.00;72.90;;;;;;5053624;28;20032;-80
2021/11/19 06:14:32;;;;;;;0.00;0.00;;;7.00;73.30;;;;;;5054076;28;20036;-80
2021/11/19 06:17:08;;;;;;;0.00;0.00;;;6.90;73.30;;;;;;5054166;28;20108;-79
2021/11/19 06:19:40;;;;;;;0.00;0.00;;;6.90;73.10;;;;;;5053548;28;20463;-82
2021/11/19 06:22:32;;;;;;;0.00;0.00;;;6.90;73.10;;;;;;5052580;28;20024;-80
2021/11/19 06:24:58;;;;;;;0.00;0.00;;;6.90;73.30;;;;;;5052487;28;20021;-80
2021/11/19 06:27:27;;;;;;;0.00;0.00;;;6.90;73.10;;;;;;5052190;28;20092;-79
2021/11/19 06:29:55;;;;;;;0.20;0.00;;;7.00;73.10;;;;;;5053538;28;20021;-80
2021/11/19 06:32:21;;;;;;;0.00;0.00;;;7.00;73.50;;;;;;5052501;28;20036;-79
2021/11/19 06:34:47;;;;;;;0.00;0.00;;;7.00;73.20;;;;;;5053285;28;20102;-79
2021/11/19 06:37:14;;;;;;;0.00;0.00;;;7.00;73.20;;;;;;5053578;28;20033;-80
2021/11/19 06:39:42;;;;;;;0.00;0.00;;;7.00;73.40;;;;;;5052330;28;20041;-81
2021/11/19 06:42:12;;;;;;;0.00;0.00;;;7.10;73.30;;;;;;5053691;28;20040;-79
2021/11/19 06:44:40;;;;;;;0.00;0.00;;;7.10;73.10;;;;;;5053364;28;20032;-79
2021/11/19 06:47:07;;;;;;;0.00;0.00;;;7.20;73.50;;;;;;5053301;28;20173;-81
2021/11/19 06:49:33;;;;;;;0.00;0.00;;;7.30;73.40;;;;;;5052163;28;20120;-80
2021/11/19 06:51:59;;;;;;;0.00;0.00;;;7.40;73.10;;;;;;5053094;28;20037;-81
2021/11/19 06:54:25;;;;;;;0.00;0.00;;;7.50;73.00;;;;;;5052157;28;20407;-80
2021/11/19 06:56:51;;;;;;;0.00;0.00;;;7.60;72.90;;;;;;5053817;28;20045;-80
2021/11/19 06:59:18;;;;;;;0.00;0.00;;;7.80;72.70;;;;;;5053376;28;20036;-81
2021/11/19 07:01:44;;;;;;;0.00;0.00;;;7.90;72.30;;;;;;5053219;28;20029;-80
2021/11/19 07:04:10;;;;;;;0.00;0.00;;;8.00;72.00;;;;;;5053293;28;20051;-80
2021/11/19 07:06:37;;;;;;;0.00;0.00;;;8.10;71.80;;;;;;5051930;28;20083;-79
2021/11/19 07:09:05;;;;;;;0.00;0.00;;;8.20;71.60;;;;;;5053353;28;20025;-80
2021/11/19 07:11:31;;;;;;;0.00;0.00;;;8.30;71.30;;;;;;5056052;28;20090;-80
2021/11/19 07:13:57;;;;;;;0.00;0.00;;;8.30;70.80;;;;;;5057389;28;20108;-81
2021/11/19 07:16:25;;;;;;;0.00;0.00;;;8.30;70.90;;;;;;5056344;28;20098;-79
2021/11/19 07:18:53;;;;;;;0.10;0.10;;;8.30;70.70;;;;;;5057246;28;20021;-81
2021/11/19 07:21:19;;;;;;;0.00;0.00;;;8.30;70.80;;;;;;5057397;28;20025;-80
2021/11/19 07:23:45;;;;;;;0.00;0.00;;;8.40;70.80;;;;;;5057234;28;20018;-79
2021/11/19 07:26:11;;;;;;;0.00;0.00;;;8.50;70.60;;;;;;5056968;28;20039;-79
2021/11/19 07:28:37;;;;;;;0.00;0.00;;;8.60;70.20;;;;;;5056941;28;20451;-80
2021/11/19 07:31:06;;;;;;;0.03;0.03;;;8.60;69.60;;;;;;5057091;28;20066;-81
2021/11/19 07:33:31;;;;;;;0.00;0.00;;;8.60;69.40;;;;;;5056909;28;20096;-80
2021/11/19 07:35:59;;;;;;;0.00;0.00;;;8.50;69.40;;;;;;5056554;28;20451;-79
2021/11/19 07:38:27;;;;;;;0.00;0.00;;;8.40;69.50;;;;;;5056791;28;20064;-81
2021/11/19 07:40:54;;;;;;;0.00;0.00;;;8.30;69.60;;;;;;5055265;28;20116;-81
2021/11/19 07:43:22;;;;;;;0.00;0.00;;;8.30;69.90;;;;;;5056641;28;20021;-81
2021/11/19 07:45:48;;;;;;;0.00;0.00;;;8.20;69.90;;;;;;5055194;28;20061;-81
2021/11/19 07:48:22;;;;;;;0.00;0.00;;;8.20;70.00;;;;;;5055584;28;20064;-80
2021/11/19 07:50:50;;;;;;;0.00;0.00;;;8.20;69.90;;;;;;5056482;28;20048;-81
2021/11/19 07:53:17;;;;;;;0.00;0.00;;;8.10;69.80;;;;;;5056455;28;20068;-80
2021/11/19 07:55:45;;;;;;;0.00;0.00;;;8.10;70.00;;;;;;5055250;28;20035;-80
2021/11/19 07:58:12;;;;;;;0.00;0.00;;;8.00;70.00;;;;;;5056011;28;20017;-80
2021/11/19 08:00:41;;;;;;;0.00;0.00;;;8.00;70.10;;;;;;5054730;28;20021;-80
2021/11/19 08:03:07;;;;;;;0.00;0.00;;;8.00;70.30;;;;;;5055347;28;20394;-80
2021/11/19 08:05:32;;;;;;;0.00;0.00;;;8.00;70.20;;;;;;5055678;28;20033;-80
2021/11/19 08:07:59;;;;;;;0.00;0.00;;;7.90;70.30;;;;;;5053474;28;20159;-80
2021/11/19 08:10:26;;;;;;;0.00;0.00;;;7.90;71.00;;;;;;5056171;28;20025;-80
2021/11/19 08:12:52;;;;;;;0.00;0.00;;;7.90;70.40;;;;;;5055862;28;20021;-80
2021/11/19 08:15:23;;;;;;;0.00;0.00;;;7.90;70.30;;;;;;5056159;28;20028;-81
2021/11/19 08:17:52;;;;;;;0.00;0.00;;;7.80;70.40;;;;;;5054709;28;20418;-80
2021/11/19 08:20:21;;;;;;;0.00;0.00;;;7.70;70.30;;;;;;5054822;28;20040;-80
2021/11/19 08:22:48;;;;;;;0.00;0.00;;;7.60;70.80;;;;;;5054077;28;20100;-81
2021/11/19 08:25:15;;;;;;;0.00;0.00;;;7.50;71.10;;;;;;5054593;28;20055;-79
2021/11/19 08:27:48;;;;;;;0.00;0.00;;;7.50;71.20;;;;;;5055586;28;20033;-80
2021/11/19 08:30:36;;;;;;;0.00;0.00;;;7.40;71.20;;;;;;5055408;28;20108;-81
2021/11/19 08:33:05;;;;;;;0.00;0.00;;;7.40;71.60;;;;;;5055439;28;20437;-80
2021/11/19 08:35:34;;;;;;;0.00;0.00;;;7.40;71.50;;;;;;5055581;28;20049;-80
2021/11/19 08:38:00;;;;;;;0.00;0.00;;;7.30;71.50;;;;;;5055261;28;20033;-81
2021/11/19 08:40:27;;;;;;;0.00;0.00;;;7.20;71.90;;;;;;5055649;28;20036;-81
2021/11/19 08:42:53;;;;;;;0.00;0.00;;;7.20;71.90;;;;;;5055321;28;20029;-81
2021/11/19 08:45:21;;;;;;;0.00;0.00;;;7.20;72.00;;;;;;5055060;28;20107;-80
2021/11/19 08:47:49;;;;;;;0.00;0.00;;;7.10;72.00;;;;;;5055332;28;20052;-79
2021/11/19 08:50:17;;;;;;;0.00;0.00;;;7.10;72.10;;;;;;5054261;28;20032;-80
2021/11/19 08:52:42;;;;;;;0.00;0.00;;;7.10;72.30;;;;;;5055347;28;20059;-81
2021/11/19 08:55:10;;;;;;;0.00;0.00;;;7.10;72.10;;;;;;5055417;28;20029;-80
2021/11/19 08:57:36;;;;;;;0.00;0.00;;;7.00;72.10;;;;;;5054590;28;20122;-80
2021/11/19 09:00:06;;;;;;;0.00;0.00;;;6.90;72.20;;;;;;5054961;28;20107;-79
2021/11/19 09:02:32;;;;;;;0.00;0.00;;;6.90;73.10;;;;;;5054681;28;20470;-80
2021/11/19 09:04:57;;;;;;;0.00;0.00;;;6.80;73.20;;;;;;5053868;28;20032;-81
2021/11/19 09:07:23;;;;;;;0.00;0.00;;;6.70;73.70;;;;;;5053643;28;20198;-80
2021/11/19 09:09:50;;;;;;;0.00;0.00;;;6.60;74.30;;;;;;5055668;28;20036;-80
2021/11/19 09:12:16;;;;;;;0.00;0.00;;;6.50;75.40;;;;;;5055012;28;20112;-80
2021/11/19 09:14:42;;;;;;;0.00;0.00;;;6.50;75.30;;;;;;5054991;28;20025;-80
2021/11/19 09:17:22;;;;;;;0.00;0.00;;;6.50;75.60;;;;;;5055220;28;20106;-81
2021/11/19 09:20:18;;;;;;;0.00;0.00;;;6.50;76.00;;;;;;5054501;28;20471;-81
2021/11/19 09:23:17;;;;;;;0.00;0.00;;;6.50;76.30;;;;;;5054080;28;20482;-79
2021/11/19 09:25:47;;;;;;;0.25;0.00;;;6.50;77.30;;;;;;5049384;28;20132;-79
2021/11/19 09:28:15;;;;;;;0.00;0.00;;;6.50;77.00;;;;;;5055041;28;20496;-79
2021/11/19 09:30:45;;;;;;;0.00;0.00;;;6.40;77.90;;;;;;5051270;28;20033;-80
2021/11/19 09:33:15;;;;;;;0.00;0.00;;;6.50;78.20;;;;;;5054063;28;20025;-80
2021/11/19 09:35:42;;;;;;;0.00;0.00;;;6.50;78.40;;;;;;5051336;28;20055;-80
2021/11/19 09:38:10;;;;;;;0.00;0.00;;;6.40;78.70;;;;;;5051219;28;20493;-80
2021/11/19 09:40:43;;;;;;;0.00;0.00;;;6.50;79.00;;;;;;5054368;28;20125;-80
2021/11/19 09:43:29;;;;;;;0.00;0.00;;;6.50;79.00;;;;;;5046356;28;20060;-79
2021/11/19 09:46:13;;;;;;;0.00;0.00;;;6.50;79.30;;;;;;5054380;28;20029;-79
2021/11/19 09:48:59;;;;;;;0.00;0.00;;;6.50;79.80;;;;;;5054068;28;20029;-80
2021/11/19 09:51:46;;;;;;;0.00;0.00;;;6.50;80.40;;;;;;5053717;28;20078;-80
2021/11/19 09:54:33;;;;;;;0.00;0.00;;;6.50;81.00;;;;;;5054521;28;20482;-80
2021/11/19 09:57:40;;;;;;;0.00;0.00;;;6.50;81.50;;;;;;5053899;28;20033;-80
2021/11/19 10:00:31;;;;;;;0.00;0.00;;;6.60;82.10;;;;;;5025702;28;20067;-79
2021/11/19 10:03:09;;;;;;;0.00;0.00;;;6.60;82.40;;;;;;5053308;28;20025;-77
2021/11/19 10:05:50;;;;;;;0.00;0.00;;;6.60;82.50;;;;;;5054917;28;20475;-79
2021/11/19 10:08:46;;;;;;;0.00;0.00;;;6.70;83.00;;;;;;5054569;28;20108;-80
2021/11/19 10:11:40;;;;;;;0.00;0.00;;;6.60;83.30;;;;;;5053032;28;20079;-81
2021/11/19 10:14:31;;;;;;;0.00;0.00;;;6.70;83.70;;;;;;5053963;28;20075;-79
2021/11/19 10:17:47;;;;;;;0.00;0.00;;;6.70;83.80;;;;;;5054311;28;20478;-80
2021/11/19 10:20:19;;;;;;;0.00;0.00;;;6.70;83.90;;;;;;5048789;28;20044;-80
2021/11/19 10:22:56;;;;;;;0.00;0.00;;;6.80;83.60;;;;;;5053658;28;20035;-81
2021/11/19 10:25:40;;;;;;;0.00;0.00;;;6.70;83.80;;;;;;5052272;28;20033;-80
2021/11/19 10:28:17;;;;;;;0.00;0.00;;;6.70;84.60;;;;;;5052753;28;20028;-81
2021/11/19 10:30:48;;;;;;;0.00;0.00;;;6.70;84.40;;;;;;5053561;28;20032;-81
2021/11/19 10:37:02;;;;;;;0.00;0.00;;;6.70;85.80;;;;;;5047655;28;20114;-80
2021/11/19 10:39:59;;;;;;;0.00;0.00;;;6.80;85.70;;;;;;5047960;28;20056;-81
2021/11/19 10:42:55;;;;;;;0.00;0.00;;;6.80;85.80;;;;;;5048815;28;20032;-81
2021/11/19 10:45:43;;;;;;;0.00;0.00;;;6.80;85.90;;;;;;5050203;28;20033;-80
2021/11/19 10:48:44;;;;;;;0.10;0.10;;;6.80;86.30;;;;;;5052134;28;20363;-80
2021/11/19 10:51:22;;;;;;;0.00;0.00;;;6.80;86.70;;;;;;5033679;28;20033;-80
2021/11/19 10:54:09;;;;;;;0.00;0.00;;;6.80;86.90;;;;;;5033431;28;20025;-80
2021/11/19 10:56:55;;;;;;;0.00;0.00;;;6.80;87.00;;;;;;5032554;28;20116;-81
2021/11/19 10:59:40;;;;;;;0.00;0.00;;;6.90;86.80;;;;;;5047998;28;20044;-80
2021/11/19 11:02:14;;;;;;;0.00;0.00;;;6.80;87.10;;;;;;5053381;28;20035;-81
2021/11/19 11:04:41;;;;;;;0.00;0.00;;;6.80;87.80;;;;;;5053573;28;20032;-80
2021/11/19 11:07:22;;;;;;;0.00;0.00;;;6.80;86.60;;;;;;5052825;28;20040;-80
2021/11/19 11:09:54;;;;;;;0.00;0.00;;;6.80;86.90;;;;;;5053158;28;20479;-81
2021/11/19 11:12:22;;;;;;;0.00;0.00;;;6.70;87.30;;;;;;5053825;28;20028;-81
2021/11/19 11:15:06;;;;;;;0.00;0.00;;;6.70;87.80;;;;;;5051831;28;20032;-81
2021/11/19 11:17:35;;;;;;;0.00;0.00;;;6.70;87.70;;;;;;5053480;28;20029;-80
2021/11/19 11:20:20;;;;;;;0.00;0.00;;;6.70;88.00;;;;;;5052989;28;20033;-80
2021/11/19 11:22:55;;;;;;;0.00;0.00;;;6.70;87.80;;;;;;5052319;28;20266;-79
2021/11/19 11:25:29;;;;;;;0.00;0.00;;;6.70;87.90;;;;;;5053492;28;20036;-80
2021/11/19 11:28:21;;;;;;;0.00;0.00;;;6.60;87.50;;;;;;5052068;28;20029;-80
2021/11/19 11:30:50;;;;;;;0.00;0.00;;;6.50;87.70;;;;;;5049881;28;20107;-79
2021/11/19 11:33:24;;;;;;;0.00;0.00;;;6.50;88.30;;;;;;5053642;28;20033;-80
2021/11/19 11:36:12;;;;;;;0.00;0.00;;;6.50;88.90;;;;;;5053069;28;20056;-80
2021/11/19 11:39:10;;;;;;;0.00;0.00;;;6.40;88.60;;;;;;5053487;28;20039;-81
2021/11/19 11:41:48;;;;;;;0.00;0.00;;;6.40;89.10;;;;;;5035437;28;20029;-80
2021/11/19 11:44:24;;;;;;;0.00;0.00;;;6.40;89.80;;;;;;5051666;28;20031;-79
2021/11/19 11:46:57;;;;;;;0.00;0.00;;;6.40;90.00;;;;;;5053082;28;20033;-79
2021/11/19 11:49:41;;;;;;;0.00;0.00;;;6.30;90.00;;;;;;5052959;28;20036;-79
2021/11/19 11:52:48;;;;;;;0.00;0.00;;;6.40;90.70;;;;;;5052748;28;20037;-79
2021/11/19 11:55:26;;;;;;;0.00;0.00;;;6.40;90.60;;;;;;5038624;28;20052;-80
2021/11/19 11:57:52;;;;;;;0.00;0.00;;;6.40;90.80;;;;;;5056982;28;20021;-80
2021/11/19 12:00:37;;;;;;;0.00;0.00;;;6.50;90.80;;;;;;5056916;28;20031;-80
2021/11/19 12:03:08;;;;;;;0.00;0.00;;;6.40;90.70;;;;;;5055867;28;20031;-81
2021/11/19 12:05:43;;;;;;;0.00;0.00;;;6.40;90.80;;;;;;5056972;28;20060;-81
2021/11/19 12:08:14;;;;;;;;;;;6.40;91.20;;;;;;5062981;28;20033;-81
2021/11/19 12:11:05;;;;;;;0.00;0.00;;;6.40;91.00;;;;;;5048972;28;19904;-79
2021/11/19 12:13:45;;;;;;;0.00;0.00;;;6.30;91.10;;;;;;5056456;28;20044;-80
2021/11/19 12:16:50;;;;;;;0.00;0.00;;;6.30;91.40;;;;;;5052669;28;20037;-81
2021/11/19 12:19:47;;;;;;;0.00;0.00;;;6.30;91.80;;;;;;5056185;28;20029;-80
2021/11/19 12:22:37;;;;;;;0.00;0.00;;;6.30;92.10;;;;;;5043133;28;20110;-81
2021/11/19 12:25:27;;;;;;;0.00;0.00;;;6.30;92.30;;;;;;5054750;28;20025;-81
2021/11/19 12:28:01;;;;;;;0.00;0.00;;;6.30;92.40;;;;;;5052779;28;20041;-81
2021/11/19 12:30:39;;;;;;;0.00;0.00;;;6.30;92.70;;;;;;5042737;28;20478;-81
2021/11/19 12:33:24;;;;;;;0.00;0.00;;;6.30;92.50;;;;;;5045603;28;20045;-81
2021/11/19 12:35:53;;;;;;;0.00;0.00;;;6.40;92.80;;;;;;5055313;28;20053;-81
2021/11/19 12:38:25;;;;;;;0.00;0.00;;;6.40;93.00;;;;;;5054211;28;20048;-81
2021/11/19 12:40:50;;;;;;;0.00;0.00;;;6.40;92.90;;;;;;5056069;28;20024;-81
2021/11/19 12:43:50;;;;;;;0.00;0.00;;;6.40;93.00;;;;;;5053976;28;20107;-81
2021/11/19 12:46:33;;;;;;;0.00;0.00;;;6.40;93.00;;;;;;5055727;28;20427;-81
2021/11/19 12:49:17;;;;;;;0.00;0.00;;;6.40;93.00;;;;;;5053696;28;20107;-80
2021/11/19 12:51:43;;;;;;;0.00;0.00;;;6.40;93.10;;;;;;5055423;28;20033;-81
2021/11/19 12:54:41;;;;;;;0.00;0.00;;;6.50;92.90;;;;;;5051432;28;20466;-81
2021/11/19 12:57:45;;;;;;;0.00;0.00;;;6.40;92.90;;;;;;5052957;28;20043;-81
2021/11/19 13:00:29;;;;;;;0.00;0.00;;;6.40;93.20;;;;;;5048689;28;20384;-83
2021/11/19 13:03:33;;;;;;;0.00;0.00;;;6.40;93.20;;;;;;5051154;28;20102;-82
2021/11/19 13:06:20;;;;;;;0.00;0.00;;;6.50;93.40;;;;;;5050414;28;20040;-81
2021/11/19 13:08:57;;;;;;;0.00;0.00;;;6.40;93.30;;;;;;5049287;28;20033;-81
2021/11/19 13:11:34;;;;;;;0.00;0.00;;;6.40;93.40;;;;;;5044646;28;20021;-82
2021/11/19 13:14:25;;;;;;;0.00;0.00;;;6.40;93.30;;;;;;5053227;28;20078;-81
2021/11/19 13:16:55;;;;;;;0.00;0.00;;;6.40;93.50;;;;;;5053306;28;20029;-82
2021/11/19 13:19:41;;;;;;;0.00;0.00;;;6.50;93.70;;;;;;5053552;28;20056;-82
2021/11/19 13:22:10;;;;;;;0.00;0.00;;;6.50;93.30;;;;;;5034200;28;20079;-82
2021/11/19 13:24:47;;;;;;;0.00;0.00;;;6.50;93.50;;;;;;5054013;28;20086;-82
2021/11/19 13:27:13;;;;;;;0.00;0.00;;;6.50;93.50;;;;;;5055126;28;20458;-82
2021/11/19 13:30:02;;;;;;;0.00;0.00;;;6.50;93.20;;;;;;5049021;28;20033;-81